METAR Data
IDs: Format: Raw Decoded Include TAF

Data at: 2048 UTC 17 Nov 2019

PKMJ 171951Z 17014KT 14SM -RA FEW015 SCT050 BKN120 OVC300 27/25 A2987